Time;durP1;ratioP1;P1;durP2;ratioP2;P2;SDS_P1;SDS_P2;PMS_P1;PMS_P2;Temp;Humidity;BMP_temperature;BMP_pressure;BME280_temperature;BME280_humidity;BME280_pressure;Samples;Min_cycle;Max_cycle;Signal;HPM_P1;HPM_P2
2021/12/16 00:37:47;;;;;;;9.98;3.45;;;8.80;99.90;;;;;;6254090;23;20014;-83
2021/12/16 00:40:16;;;;;;;11.15;4.03;;;8.10;99.90;;;;;;6236044;23;20076;-83
2021/12/16 00:43:09;;;;;;;10.88;3.45;;;7.90;99.90;;;;;;6237424;23;20027;-82
2021/12/16 00:45:58;;;;;;;9.02;3.63;;;7.90;99.90;;;;;;6237752;23;20064;-83
2021/12/16 00:48:24;;;;;;;13.55;4.20;;;7.90;99.90;;;;;;6236584;23;20024;-83
2021/12/16 00:56:14;;;;;;;11.93;3.63;;;7.80;99.90;;;;;;6218816;23;20052;-83
2021/12/16 00:58:49;;;;;;;10.05;3.28;;;7.80;99.90;;;;;;6219792;23;20043;-83
2021/12/16 01:03:59;;;;;;;10.63;3.70;;;7.70;99.90;;;;;;6220040;23;20020;-82
2021/12/16 01:53:18;;;;;;;8.18;2.80;;;7.80;99.90;;;;;;6242268;23;20018;-83
2021/12/16 02:03:24;;;;;;;8.80;2.90;;;8.30;99.90;;;;;;6217722;23;20051;-83
2021/12/16 02:33:51;;;;;;;10.48;2.85;;;7.10;99.90;;;;;;6217016;23;20020;-83
2021/12/16 02:52:17;;;;;;;6.65;3.03;;;6.50;99.90;;;;;;6246142;23;20015;-82
2021/12/16 02:58:59;;;;;;;7.55;2.95;;;5.80;99.90;;;;;;6239042;22;20043;-81
2021/12/16 03:38:24;;;;;;;13.27;3.75;;;6.70;99.90;;;;;;6230624;22;20099;-82
2021/12/16 03:41:27;;;;;;;8.40;3.10;;;8.00;99.90;;;;;;6218537;23;20047;-82
2021/12/16 03:44:26;;;;;;;11.00;3.13;;;7.80;99.90;;;;;;6218211;23;20043;-81
2021/12/16 03:47:47;;;;;;;10.38;3.28;;;5.80;99.90;;;;;;6218315;23;20444;-82
2021/12/16 04:04:37;;;;;;;10.07;3.03;;;7.60;99.90;;;;;;6218676;23;20017;-82
2021/12/16 04:10:52;;;;;;;8.48;3.13;;;6.60;99.90;;;;;;6245051;23;20043;-82
2021/12/16 04:13:19;;;;;;;12.38;3.50;;;7.70;99.90;;;;;;6218264;23;20016;-82
2021/12/16 04:15:52;;;;;;;10.93;2.95;;;6.60;99.90;;;;;;6218286;23;20049;-83
2021/12/16 04:22:38;;;;;;;12.45;3.60;;;6.30;99.90;;;;;;6245359;23;20344;-83
2021/12/16 04:27:57;;;;;;;9.68;3.45;;;6.80;99.90;;;;;;6241356;22;20723;-82
2021/12/16 04:30:42;;;;;;;8.38;3.90;;;6.70;99.90;;;;;;6218422;23;20023;-82
2021/12/16 04:33:55;;;;;;;13.70;3.67;;;8.20;99.90;;;;;;6217811;23;20015;-82
2021/12/16 04:36:20;;;;;;;10.93;3.72;;;7.10;99.90;;;;;;6217978;23;20353;-82
2021/12/16 04:42:53;;;;;;;9.88;3.90;;;6.90;99.90;;;;;;6218223;23;19942;-83
2021/12/16 04:52:38;;;;;;;12.07;3.67;;;6.50;99.90;;;;;;6217432;23;20020;-82
2021/12/16 04:59:08;;;;;;;8.73;3.40;;;6.10;99.90;;;;;;6218236;22;20028;-82
2021/12/16 05:32:02;;;;;;;8.55;3.42;;;5.00;99.90;;;;;;6214069;23;20440;-80
2021/12/16 05:41:53;;;;;;;9.52;3.40;;;5.40;99.90;;;;;;6209267;22;20115;-82
2021/12/16 05:44:45;;;;;;;8.38;3.55;;;6.30;99.90;;;;;;6126713;23;20025;-84
2021/12/16 05:47:26;;;;;;;11.70;4.10;;;6.50;99.90;;;;;;6127095;23;20013;-81
2021/12/16 05:50:24;;;;;;;12.32;4.35;;;6.30;99.90;;;;;;6126730;23;20338;-80
2021/12/16 05:53:02;;;;;;;8.98;4.15;;;6.40;99.90;;;;;;6144938;23;20052;-81
2021/12/16 05:55:39;;;;;;;10.05;3.90;;;6.30;99.90;;;;;;6183395;23;20021;-81
2021/12/16 05:58:07;;;;;;;10.43;4.00;;;6.70;99.90;;;;;;6185808;23;20394;-80
2021/12/16 06:01:12;;;;;;;12.10;4.07;;;6.40;99.90;;;;;;6186430;23;20021;-82
2021/12/16 06:07:28;;;;;;;11.27;4.57;;;6.40;99.90;;;;;;6188119;23;20028;-85
2021/12/16 06:27:46;;;;;;;12.02;4.75;;;7.20;99.90;;;;;;6244626;23;20352;-79
2021/12/16 06:31:07;;;;;;;;;;;;;;;;;;;;;
2021/12/16 06:52:48;;;;;;;20.63;4.28;;;5.70;99.90;;;;;;6216090;23;20015;-82
2021/12/16 06:59:26;;;;;;;13.55;3.60;;;5.50;99.90;;;;;;6215184;23;20092;-80
2021/12/16 07:09:39;;;;;;;26.17;4.25;;;5.50;99.90;;;;;;6094490;23;20153;-77
2021/12/16 07:12:35;;;;;;;;;;;4.60;99.90;;;;;;6070665;23;20015;-79
2021/12/16 07:21:43;;;;;;;30.42;4.63;;;5.30;99.90;;;;;;6122632;23;20033;-77
2021/12/16 07:24:27;;;;;;;14.38;2.83;;;6.30;99.90;;;;;;6098413;23;20462;-81
2021/12/16 07:26:53;;;;;;;8.48;3.00;;;5.20;99.90;;;;;;6098103;23;20021;-79
2021/12/16 07:29:36;;;;;;;;;;;5.20;99.90;;;;;;6166228;23;20344;-80
2021/12/16 07:32:01;;;;;;;19.75;3.10;;;5.10;99.90;;;;;;6221275;22;19908;-79
2021/12/16 07:34:27;;;;;;;;;;;5.10;99.90;;;;;;6216743;23;20023;-79
2021/12/16 07:36:56;;;;;;;14.10;2.65;;;5.10;99.90;;;;;;6216999;23;20287;-78
2021/12/16 07:39:30;;;;;;;21.77;3.08;;;5.00;99.90;;;;;;6217782;23;20012;-78
2021/12/16 07:41:57;;;;;;;19.95;3.03;;;5.20;99.90;;;;;;6214975;23;20328;-79
2021/12/16 07:44:23;;;;;;;15.98;2.80;;;5.00;99.90;;;;;;6245283;23;20012;-79
2021/12/16 07:46:52;;;;;;;;;;;4.90;99.90;;;;;;6218171;23;20017;-79
2021/12/16 07:49:22;;;;;;;20.52;3.08;;;4.90;99.90;;;;;;6216814;23;20350;-79
2021/12/16 07:55:36;;;;;;;22.88;3.58;;;4.80;99.90;;;;;;6242540;22;20058;-79
2021/12/16 07:58:03;;;;;;;;;;;4.80;99.90;;;;;;6244725;23;20016;-78
2021/12/16 08:03:56;;;;;;;;;;;3.80;99.90;;;;;;6181992;23;20058;-79
2021/12/16 08:07:09;;;;;;;16.02;3.55;;;4.10;99.90;;;;;;6156999;23;19991;-78
2021/12/16 08:09:49;;;;;;;20.92;4.38;;;5.80;99.90;;;;;;6189300;22;20078;-79
2021/12/16 08:12:20;;;;;;;17.30;4.25;;;5.70;99.90;;;;;;6218661;23;20054;-78
2021/12/16 08:14:46;;;;;;;16.88;4.18;;;4.90;99.90;;;;;;6218125;23;20039;-78
2021/12/16 08:17:27;;;;;;;18.20;4.80;;;5.00;99.90;;;;;;6217980;23;20034;-78
2021/12/16 08:20:10;;;;;;;20.77;4.38;;;5.00;99.90;;;;;;6245376;23;20087;-79
2021/12/16 08:23:04;;;;;;;26.23;5.00;;;5.20;99.90;;;;;;6218674;23;20020;-79
2021/12/16 08:25:31;;;;;;;23.08;4.07;;;5.10;99.90;;;;;;6244761;23;20099;-78
2021/12/16 08:27:58;;;;;;;36.80;5.20;;;5.20;99.90;;;;;;6244951;23;20023;-79
2021/12/16 08:30:31;;;;;;;28.70;4.68;;;5.30;99.90;;;;;;6217635;23;20099;-78
2021/12/16 08:33:04;;;;;;;24.35;4.68;;;5.30;99.90;;;;;;6218334;23;20048;-78
2021/12/16 08:35:30;;;;;;;25.35;4.53;;;5.40;99.90;;;;;;6218042;23;20013;-78
2021/12/16 08:37:55;;;;;;;;;;;5.40;99.90;;;;;;6218025;23;20139;-78
2021/12/16 08:40:24;;;;;;;15.88;4.32;;;5.50;99.90;;;;;;6244882;23;19916;-78
2021/12/16 08:42:50;;;;;;;23.77;4.65;;;5.50;99.90;;;;;;6218379;23;20087;-78
2021/12/16 08:45:29;;;;;;;20.75;3.65;;;5.60;99.90;;;;;;6217328;23;20012;-78
2021/12/16 08:47:55;;;;;;;26.02;4.00;;;5.60;99.90;;;;;;6244984;23;20016;-78
2021/12/16 08:50:24;;;;;;;10.38;4.13;;;5.50;99.90;;;;;;6218990;23;20027;-78
2021/12/16 08:52:50;;;;;;;15.02;5.10;;;5.40;99.90;;;;;;6220925;23;20019;-79
2021/12/16 08:55:16;;;;;;;;;;;5.40;99.90;;;;;;6228117;23;20046;-79
2021/12/16 08:57:43;;;;;;;9.10;3.97;;;5.50;99.90;;;;;;6253513;23;19987;-78
2021/12/16 09:00:14;;;;;;;10.63;3.85;;;5.60;99.90;;;;;;6250795;23;20051;-79
2021/12/16 09:02:40;;;;;;;12.05;3.78;;;5.70;99.90;;;;;;6250322;23;20009;-79
2021/12/16 09:05:06;;;;;;;;;;;5.80;99.90;;;;;;6252337;23;20038;-79
2021/12/16 09:07:32;;;;;;;19.63;4.40;;;6.00;99.90;;;;;;6222654;23;19916;-79
2021/12/16 09:10:00;;;;;;;14.00;5.07;;;6.10;99.90;;;;;;6217682;23;20016;-79
2021/12/16 09:15:12;;;;;;;17.08;4.50;;;6.60;99.90;;;;;;6245105;23;19990;-78
2021/12/16 09:17:41;;;;;;;17.45;4.25;;;6.70;99.90;;;;;;6218451;23;20020;-77
2021/12/16 09:20:10;;;;;;;30.08;7.25;;;7.00;99.90;;;;;;6217627;23;20016;-76
2021/12/16 09:23:13;;;;;;;16.75;5.05;;;7.10;99.90;;;;;;6217744;23;20035;-77
2021/12/16 09:32:59;;;;;;;10.68;3.80;;;8.70;99.90;;;;;;6245221;23;20018;-78
2021/12/16 09:35:34;;;;;;;6.50;3.58;;;8.10;99.90;;;;;;6217317;23;20094;-78
2021/12/16 09:38:03;;;;;;;8.10;3.63;;;8.20;99.90;;;;;;6217992;23;20016;-77
2021/12/16 09:40:30;;;;;;;11.25;3.70;;;8.40;99.90;;;;;;6217229;23;20095;-77
2021/12/16 09:42:57;;;;;;;17.42;3.90;;;8.50;99.90;;;;;;6217171;23;20436;-77
2021/12/16 09:45:23;;;;;;;12.77;5.60;;;8.70;99.90;;;;;;6218774;23;20012;-77
2021/12/16 09:47:50;;;;;;;8.02;4.30;;;8.70;99.90;;;;;;6219012;23;20377;-78
2021/12/16 09:50:23;;;;;;;7.95;3.78;;;8.80;99.90;;;;;;6219153;23;20066;-78
2021/12/16 09:52:49;;;;;;;10.57;3.92;;;9.50;99.90;;;;;;6219844;23;20020;-77
2021/12/16 09:55:16;;;;;;;8.43;4.10;;;8.80;99.90;;;;;;6219014;23;20452;-78
2021/12/16 09:57:41;;;;;;;;;;;9.00;99.90;;;;;;6220207;23;20455;-78
2021/12/16 10:00:11;;;;;;;5.43;3.78;;;9.10;99.90;;;;;;6245003;23;19916;-78
2021/12/16 10:02:38;;;;;;;14.90;4.18;;;9.20;99.90;;;;;;6218468;23;20020;-78
2021/12/16 10:05:07;;;;;;;6.10;4.05;;;9.30;99.90;;;;;;6219728;23;20019;-78
2021/12/16 10:07:34;;;;;;;7.53;4.30;;;9.30;99.90;;;;;;6219520;23;20039;-78
2021/12/16 10:10:05;;;;;;;7.68;4.30;;;9.30;99.90;;;;;;6218897;23;20035;-78
2021/12/16 10:12:37;;;;;;;7.78;4.53;;;9.40;99.90;;;;;;6219375;23;20027;-77
2021/12/16 10:18:21;;;;;;;8.57;4.93;;;9.90;99.90;;;;;;6218924;23;20032;-84
2021/12/16 10:20:55;;;;;;;9.82;4.85;;;9.80;99.90;;;;;;6218968;23;20016;-78
2021/12/16 10:23:24;;;;;;;10.75;5.93;;;10.10;99.90;;;;;;6218562;23;20448;-78
2021/12/16 10:25:53;;;;;;;10.68;5.60;;;10.70;99.90;;;;;;6219351;23;20016;-77
2021/12/16 10:28:32;;;;;;;9.68;5.47;;;11.20;99.90;;;;;;6218992;23;20309;-78
2021/12/16 10:31:17;;;;;;;12.30;5.72;;;11.80;99.90;;;;;;6245505;23;20095;-77
2021/12/16 10:33:52;;;;;;;12.80;5.20;;;12.40;99.90;;;;;;6218649;23;20012;-78
2021/12/16 10:36:40;;;;;;;12.75;5.65;;;14.00;99.90;;;;;;6245860;23;20016;-78
2021/12/16 10:39:22;;;;;;;10.10;5.95;;;14.50;99.90;;;;;;6218843;23;20402;-78
2021/12/16 10:41:57;;;;;;;9.13;5.30;;;14.90;99.90;;;;;;6219221;23;20020;-78
2021/12/16 10:44:33;;;;;;;12.27;5.97;;;14.60;99.90;;;;;;6245642;23;20027;-78
2021/12/16 10:47:01;;;;;;;10.27;5.68;;;14.40;99.90;;;;;;6246563;23;20071;-78
2021/12/16 10:49:37;;;;;;;10.02;5.75;;;14.00;99.90;;;;;;6246388;23;20443;-78
2021/12/16 10:52:10;;;;;;;10.57;5.63;;;13.70;99.90;;;;;;6218495;23;20091;-78
2021/12/16 10:54:39;;;;;;;12.10;5.50;;;13.30;99.90;;;;;;6219345;23;20061;-78
2021/12/16 10:57:15;;;;;;;12.00;5.45;;;13.10;99.90;;;;;;6245506;23;20020;-78
2021/12/16 10:59:50;;;;;;;10.70;5.33;;;12.80;99.90;;;;;;6246045;23;20023;-77
2021/12/16 11:02:23;;;;;;;12.73;5.85;;;12.70;99.90;;;;;;6218088;23;20016;-78
2021/12/16 11:04:53;;;;;;;12.57;5.50;;;12.50;99.90;;;;;;6218904;23;20089;-78
2021/12/16 11:07:43;;;;;;;9.55;5.50;;;12.40;99.90;;;;;;6244576;23;20460;-78
2021/12/16 11:10:09;;;;;;;13.25;6.18;;;12.40;99.90;;;;;;6218212;23;20054;-78
2021/12/16 11:12:42;;;;;;;10.30;5.10;;;12.30;99.90;;;;;;6218316;23;20024;-78
2021/12/16 11:25:55;;;;;;;11.35;5.80;;;11.90;99.90;;;;;;6245240;23;20058;-81
2021/12/16 11:28:28;;;;;;;;;;;11.20;99.90;;;;;;6218025;23;20031;-82
2021/12/16 11:30:57;;;;;;;16.58;6.15;;;11.90;99.90;;;;;;6219352;23;19918;-81
2021/12/16 11:33:42;;;;;;;15.45;6.18;;;12.00;99.90;;;;;;6217345;23;20452;-80
2021/12/16 11:36:35;;;;;;;11.57;5.53;;;12.30;99.90;;;;;;6218504;23;20050;-80
2021/12/16 11:39:16;;;;;;;16.92;6.60;;;12.50;99.90;;;;;;6218288;23;20329;-80
2021/12/16 11:41:49;;;;;;;14.65;5.53;;;12.40;99.90;;;;;;6218172;23;20016;-80
2021/12/16 11:44:17;;;;;;;11.60;5.60;;;12.30;99.90;;;;;;6217928;23;20070;-80
2021/12/16 12:03:17;;;;;;;17.98;6.75;;;11.80;99.90;;;;;;6244036;23;20083;-79
2021/12/16 12:17:50;;;;;;;13.82;6.82;;;12.10;99.90;;;;;;6122488;23;20081;-78
2021/12/16 12:23:35;;;;;;;12.48;7.05;;;10.80;99.90;;;;;;6214248;23;20439;-79
2021/12/16 12:26:16;;;;;;;18.33;7.50;;;10.80;99.90;;;;;;6212936;23;20062;-81
2021/12/16 12:32:58;;;;;;;14.77;7.22;;;10.50;99.90;;;;;;6221968;22;20029;-83
2021/12/16 12:35:45;;;;;;;12.55;6.95;;;12.30;99.90;;;;;;6217309;23;20051;-83
2021/12/16 12:38:23;;;;;;;13.95;7.22;;;11.70;99.90;;;;;;6218034;23;20016;-83
2021/12/16 12:44:46;;;;;;;19.08;8.23;;;10.50;99.90;;;;;;6243264;23;20073;-89
2021/12/16 13:32:28;;;;;;;17.00;8.57;;;10.20;99.90;;;;;;6256279;22;20074;-82
2021/12/16 13:36:31;;;;;;;14.68;8.40;;;11.00;99.90;;;;;;6169271;23;20419;-84
2021/12/16 14:18:14;;;;;;;22.27;10.90;;;9.10;99.90;;;;;;6180399;23;20033;-80
2021/12/16 14:26:49;;;;;;;21.45;9.77;;;11.70;99.90;;;;;;6084134;23;20201;-78
2021/12/16 14:38:58;;;;;;;27.50;16.77;;;10.00;99.90;;;;;;6182911;23;20024;-81
2021/12/16 14:41:37;;;;;;;40.03;22.83;;;11.20;99.90;;;;;;6169462;23;20103;-80
2021/12/16 14:44:19;;;;;;;31.17;19.85;;;10.00;99.90;;;;;;6181240;23;20036;-80
2021/12/16 14:47:01;;;;;;;24.08;14.93;;;10.20;99.90;;;;;;6158477;23;20017;-85
2021/12/16 14:49:32;;;;;;;19.13;12.23;;;10.00;99.90;;;;;;6159904;22;20104;-80
2021/12/16 14:52:12;;;;;;;19.00;11.63;;;10.00;99.90;;;;;;6157001;23;20027;-83
2021/12/16 14:54:50;;;;;;;16.30;12.07;;;11.80;99.90;;;;;;6156547;23;20096;-81
2021/12/16 14:57:22;;;;;;;17.42;11.52;;;10.00;99.90;;;;;;6152754;23;20091;-79
2021/12/16 14:59:48;;;;;;;14.95;10.48;;;9.90;99.90;;;;;;6158187;23;20024;-78
2021/12/16 15:02:14;;;;;;;;;;;9.90;99.90;;;;;;6184876;23;20020;-80
2021/12/16 15:35:56;;;;;;;15.10;6.68;;;9.00;99.90;;;;;;6222601;23;20024;-83
2021/12/16 15:43:56;;;;;;;12.27;4.20;;;9.70;99.90;;;;;;6218238;23;20515;-79
2021/12/16 15:46:29;;;;;;;18.75;5.97;;;8.60;99.90;;;;;;6216488;23;20103;-78
2021/12/16 15:48:55;;;;;;;23.30;6.32;;;8.60;99.90;;;;;;6218175;23;20344;-80
2021/12/16 15:51:32;;;;;;;29.35;6.75;;;8.50;99.90;;;;;;6244836;23;20020;-79
2021/12/16 15:54:04;;;;;;;14.55;8.02;;;8.40;99.90;;;;;;6218042;23;20016;-79
2021/12/16 15:56:35;;;;;;;22.40;7.40;;;8.40;99.90;;;;;;6219500;23;20095;-80
2021/12/16 15:59:03;;;;;;;13.90;6.20;;;8.40;99.90;;;;;;6217539;23;20130;-79
2021/12/16 16:01:32;;;;;;;11.98;5.80;;;8.40;99.90;;;;;;6215643;23;20112;-78
2021/12/16 16:04:06;;;;;;;21.33;6.28;;;8.30;99.90;;;;;;6217186;23;20013;-79
2021/12/16 16:06:32;;;;;;;14.18;6.43;;;8.30;99.90;;;;;;6244458;23;20020;-79
2021/12/16 16:08:59;;;;;;;;;;;8.30;99.90;;;;;;6216863;23;20027;-78
2021/12/16 16:11:32;;;;;;;26.13;5.22;;;8.30;99.90;;;;;;6216588;23;19916;-81
2021/12/16 16:14:03;;;;;;;27.52;5.97;;;8.30;99.90;;;;;;6243503;23;20091;-79
2021/12/16 16:16:41;;;;;;;17.33;5.35;;;8.30;99.90;;;;;;6217447;23;20016;-77
2021/12/16 16:19:09;;;;;;;24.88;7.20;;;8.60;99.90;;;;;;6241507;23;20016;-76
2021/12/16 16:21:43;;;;;;;27.13;7.22;;;8.30;99.90;;;;;;6243811;23;20012;-79
2021/12/16 16:24:18;;;;;;;25.92;6.72;;;8.30;99.90;;;;;;6217425;23;20117;-78
2021/12/16 16:26:46;;;;;;;23.60;7.65;;;8.30;99.90;;;;;;6218887;23;20455;-79
2021/12/16 16:29:17;;;;;;;26.42;7.70;;;8.30;99.90;;;;;;6217588;23;20024;-77
2021/12/16 16:31:44;;;;;;;17.77;7.15;;;8.30;99.90;;;;;;6217726;23;20029;-79
2021/12/16 16:34:16;;;;;;;27.05;8.95;;;8.40;99.90;;;;;;6218176;23;20067;-79
2021/12/16 16:36:46;;;;;;;17.85;8.15;;;8.40;99.90;;;;;;6245334;23;20018;-78
2021/12/16 16:39:15;;;;;;;26.58;8.40;;;8.40;99.90;;;;;;6218084;23;20028;-77
2021/12/16 16:41:45;;;;;;;29.13;8.00;;;8.40;99.90;;;;;;6216780;23;20467;-76
2021/12/16 16:44:14;;;;;;;26.98;8.63;;;8.40;99.90;;;;;;6215162;23;20028;-77
2021/12/16 16:46:53;;;;;;;17.42;7.80;;;8.40;99.90;;;;;;6216949;23;20061;-80
2021/12/16 16:49:36;;;;;;;47.08;8.35;;;8.40;99.90;;;;;;6232363;23;20031;-78
2021/12/16 16:52:08;;;;;;;24.33;8.40;;;8.40;99.90;;;;;;6216747;23;20024;-78
2021/12/16 16:54:45;;;;;;;25.05;7.57;;;8.40;99.90;;;;;;6216600;23;20019;-77
2021/12/16 16:57:33;;;;;;;26.08;7.63;;;8.40;99.90;;;;;;6215194;23;20367;-82
2021/12/16 17:00:08;;;;;;;19.23;6.55;;;8.40;99.90;;;;;;6222205;23;20047;-78
2021/12/16 17:02:54;;;;;;;19.85;7.13;;;8.40;99.90;;;;;;6247789;22;20767;-86
2021/12/16 17:05:36;;;;;;;21.42;8.18;;;8.40;99.90;;;;;;6224101;23;20452;-82
2021/12/16 17:08:09;;;;;;;24.60;8.07;;;8.50;99.90;;;;;;6218994;23;20441;-77
2021/12/16 17:10:44;;;;;;;27.67;9.88;;;8.50;99.90;;;;;;6218682;23;20098;-82
2021/12/16 17:13:36;;;;;;;27.85;10.27;;;8.30;99.90;;;;;;6219339;23;20412;-82
2021/12/16 17:18:59;;;;;;;33.55;9.40;;;8.70;99.90;;;;;;6244502;23;20387;-79
2021/12/16 17:21:47;;;;;;;16.88;7.75;;;8.50;99.90;;;;;;6245144;23;20016;-80
2021/12/16 17:24:19;;;;;;;21.98;7.25;;;8.50;99.90;;;;;;6218917;23;20349;-84
2021/12/16 17:27:00;;;;;;;25.50;8.27;;;8.50;99.90;;;;;;6218232;23;20016;-76
2021/12/16 17:29:35;;;;;;;21.35;6.97;;;8.50;99.90;;;;;;6241882;23;20012;-81
2021/12/16 17:32:07;;;;;;;23.40;7.65;;;8.40;99.90;;;;;;6215227;23;20035;-80
2021/12/16 17:34:43;;;;;;;18.25;7.88;;;8.40;99.90;;;;;;6218363;23;20104;-84
2021/12/16 17:37:31;;;;;;;16.25;5.90;;;8.40;99.90;;;;;;6220414;23;20039;-81
2021/12/16 17:40:01;;;;;;;23.27;8.95;;;8.40;99.90;;;;;;6218749;23;20089;-78
2021/12/16 17:42:34;;;;;;;20.20;8.70;;;8.40;99.90;;;;;;6217830;23;20054;-81
2021/12/16 17:45:07;;;;;;;19.75;7.35;;;8.40;99.90;;;;;;6219153;23;20008;-79
2021/12/16 17:47:35;;;;;;;14.88;6.80;;;8.30;99.90;;;;;;6211937;23;20062;-77
2021/12/16 17:50:05;;;;;;;37.38;22.88;;;8.30;99.90;;;;;;6240876;22;20012;-80
2021/12/16 17:52:34;;;;;;;19.60;13.02;;;8.40;99.90;;;;;;6217127;23;20016;-81
2021/12/16 17:55:18;;;;;;;30.05;17.55;;;8.40;99.90;;;;;;6215537;22;20023;-78
2021/12/16 17:57:47;;;;;;;22.35;13.88;;;8.00;99.90;;;;;;6217223;23;20070;-77
2021/12/16 18:00:43;;;;;;;27.77;11.57;;;8.20;99.90;;;;;;6215457;23;20230;-79
2021/12/16 18:03:23;;;;;;;25.75;12.32;;;8.40;99.90;;;;;;6214000;23;20506;-79
2021/12/16 18:05:52;;;;;;;24.00;11.73;;;8.40;99.90;;;;;;6217916;23;20016;-80
2021/12/16 18:08:40;;;;;;;22.98;11.13;;;8.40;99.90;;;;;;6215317;23;20095;-79
2021/12/16 18:11:09;;;;;;;30.83;10.32;;;8.40;99.90;;;;;;6218647;23;20024;-80
2021/12/16 18:13:49;;;;;;;26.38;10.43;;;8.40;99.90;;;;;;6246318;23;20376;-79
2021/12/16 18:16:24;;;;;;;23.80;9.55;;;8.40;99.90;;;;;;6217345;23;20016;-76
2021/12/16 18:18:53;;;;;;;21.77;10.75;;;8.40;99.90;;;;;;6215079;23;20444;-76
2021/12/16 18:21:26;;;;;;;21.95;9.93;;;8.40;99.90;;;;;;6243240;23;20401;-78
2021/12/16 18:24:00;;;;;;;18.27;7.32;;;8.40;99.90;;;;;;6217964;23;20051;-78
2021/12/16 18:26:38;;;;;;;20.85;8.02;;;8.40;99.90;;;;;;6217611;23;20027;-78
2021/12/16 18:29:14;;;;;;;18.73;9.00;;;8.40;99.90;;;;;;6217016;23;20432;-78
2021/12/16 18:31:49;;;;;;;19.90;10.38;;;8.40;99.90;;;;;;6206340;23;20095;-78
2021/12/16 18:34:22;;;;;;;18.35;10.77;;;8.10;99.90;;;;;;6244793;23;20332;-76
2021/12/16 18:37:15;;;;;;;16.33;9.48;;;8.30;99.90;;;;;;6217046;23;20016;-76
2021/12/16 18:39:54;;;;;;;15.02;8.60;;;8.40;99.90;;;;;;6217912;23;20020;-76
2021/12/16 18:42:29;;;;;;;15.65;9.43;;;8.30;99.90;;;;;;6243647;23;20085;-75
2021/12/16 18:56:33;;;;;;;17.52;8.70;;;8.50;99.90;;;;;;6242129;23;20448;-77
2021/12/16 18:58:59;;;;;;;16.58;9.02;;;8.50;99.90;;;;;;6217343;23;20055;-76
2021/12/16 19:01:27;;;;;;;;;;;8.50;99.90;;;;;;6216027;23;20321;-76
2021/12/16 19:03:52;;;;;;;16.08;8.75;;;8.50;99.90;;;;;;6217537;23;20389;-76
2021/12/16 19:06:19;;;;;;;;;;;8.50;99.90;;;;;;6218109;23;20091;-76
2021/12/16 19:08:46;;;;;;;24.42;11.20;;;8.50;99.90;;;;;;6218163;23;19915;-76
2021/12/16 19:11:13;;;;;;;18.55;12.68;;;8.50;99.90;;;;;;6217106;23;20062;-77
2021/12/16 19:13:42;;;;;;;20.73;11.98;;;8.50;99.90;;;;;;6218087;23;20126;-77
2021/12/16 19:16:11;;;;;;;18.98;11.05;;;8.50;99.90;;;;;;6217159;23;20074;-78
2021/12/16 19:18:40;;;;;;;21.85;12.02;;;8.60;99.90;;;;;;6217075;23;20506;-78
2021/12/16 19:21:07;;;;;;;19.65;10.20;;;8.50;99.90;;;;;;6244563;23;20068;-79
2021/12/16 19:23:34;;;;;;;19.50;10.02;;;8.60;99.90;;;;;;6217098;23;20023;-76
2021/12/16 19:26:07;;;;;;;16.75;8.73;;;8.60;99.90;;;;;;6217054;23;20201;-81
2021/12/16 19:28:34;;;;;;;16.60;7.85;;;8.60;99.90;;;;;;6217792;23;20020;-79
2021/12/16 19:31:14;;;;;;;16.20;8.95;;;8.60;99.90;;;;;;6217347;23;20024;-78
2021/12/16 19:33:42;;;;;;;17.95;8.30;;;8.60;99.90;;;;;;6217245;23;20125;-78
2021/12/16 19:36:12;;;;;;;16.40;9.10;;;8.60;99.90;;;;;;6217476;23;20551;-79
2021/12/16 19:38:47;;;;;;;24.35;13.13;;;8.60;99.90;;;;;;6215376;22;20028;-75
2021/12/16 19:41:38;;;;;;;28.55;14.60;;;9.80;99.90;;;;;;6216764;23;20111;-78
2021/12/16 19:44:25;;;;;;;22.38;9.70;;;7.80;99.90;;;;;;6217996;23;20519;-78
2021/12/16 19:46:54;;;;;;;;;;;8.60;99.90;;;;;;6244113;23;20314;-77
2021/12/16 19:52:19;;;;;;;17.25;9.23;;;8.60;99.90;;;;;;6242547;23;20020;-81
2021/12/16 19:54:51;;;;;;;20.13;9.77;;;7.40;99.90;;;;;;6216932;23;20078;-81
2021/12/16 19:57:38;;;;;;;17.15;9.15;;;8.50;99.90;;;;;;6216638;23;20020;-78
2021/12/16 20:00:10;;;;;;;16.33;8.55;;;8.50;99.90;;;;;;6217014;23;20020;-75
2021/12/16 20:02:36;;;;;;;17.27;8.73;;;7.90;99.90;;;;;;6217715;23;20024;-76
2021/12/16 20:05:05;;;;;;;;;;;8.60;99.90;;;;;;6217665;23;20024;-77
2021/12/16 20:07:36;;;;;;;17.83;6.85;;;8.50;99.90;;;;;;6216630;23;19920;-77
2021/12/16 20:10:06;;;;;;;17.38;7.85;;;8.60;99.90;;;;;;6217464;23;20016;-77
2021/12/16 20:12:32;;;;;;;19.42;7.32;;;8.50;99.90;;;;;;6217009;23;20443;-78
2021/12/16 20:15:01;;;;;;;17.52;7.45;;;8.60;99.90;;;;;;6216867;23;20344;-77
2021/12/16 20:17:29;;;;;;;18.52;7.75;;;8.50;99.90;;;;;;6216742;23;20016;-77
2021/12/16 20:20:21;;;;;;;21.40;8.40;;;8.60;99.90;;;;;;6216177;23;20016;-77
2021/12/16 20:22:46;;;;;;;16.02;7.55;;;8.50;99.90;;;;;;6190942;23;20016;-82
2021/12/16 20:25:16;;;;;;;;;;;8.50;99.90;;;;;;6216841;23;20340;-79
2021/12/16 20:27:47;;;;;;;17.60;7.07;;;8.50;99.90;;;;;;6241212;23;19915;-80
2021/12/16 20:30:27;;;;;;;21.35;7.95;;;8.50;99.90;;;;;;6217238;23;20047;-82
2021/12/16 20:33:24;;;;;;;16.90;7.57;;;8.50;99.90;;;;;;6216848;23;20094;-77
2021/12/16 20:35:59;;;;;;;16.60;7.35;;;8.50;99.90;;;;;;6243837;23;20096;-76
2021/12/16 20:38:30;;;;;;;19.30;8.18;;;8.50;99.90;;;;;;6216724;23;20023;-79
2021/12/16 20:41:02;;;;;;;18.00;7.93;;;8.50;99.90;;;;;;6217171;23;20066;-74
2021/12/16 20:43:35;;;;;;;17.98;7.15;;;8.50;99.90;;;;;;6243065;23;20016;-76
2021/12/16 20:46:05;;;;;;;17.08;7.38;;;8.50;99.90;;;;;;6244190;23;20039;-84
2021/12/16 20:48:38;;;;;;;17.05;8.07;;;8.40;99.90;;;;;;6216740;23;20023;-80
2021/12/16 20:51:09;;;;;;;17.77;8.00;;;8.40;99.90;;;;;;6216422;23;20491;-82
2021/12/16 20:53:36;;;;;;;19.48;7.95;;;8.40;99.90;;;;;;6217746;23;20012;-80
2021/12/16 20:56:02;;;;;;;18.70;8.00;;;8.40;99.90;;;;;;6243643;23;20047;-82
2021/12/16 20:58:37;;;;;;;19.83;7.90;;;8.40;99.90;;;;;;6216752;23;20074;-82
2021/12/16 21:01:10;;;;;;;18.92;8.07;;;8.40;99.90;;;;;;6217511;23;20039;-81
2021/12/16 21:11:16;;;;;;;20.83;10.38;;;8.40;99.90;;;;;;6139708;23;20042;-82
2021/12/16 21:13:43;;;;;;;18.85;9.02;;;8.40;99.90;;;;;;6191669;23;20447;-83
2021/12/16 21:16:09;;;;;;;19.52;8.93;;;8.40;99.90;;;;;;6190185;23;20080;-84
2021/12/16 21:18:35;;;;;;;;;;;8.40;99.90;;;;;;6191361;23;20385;-84
2021/12/16 21:21:02;;;;;;;15.32;7.43;;;8.40;99.90;;;;;;6192390;23;19925;-82
2021/12/16 21:23:28;;;;;;;17.63;7.63;;;8.40;99.90;;;;;;6191112;23;20019;-82
2021/12/16 21:25:54;;;;;;;;;;;8.40;99.90;;;;;;6191229;23;20098;-80
2021/12/16 21:28:22;;;;;;;17.95;7.93;;;8.40;99.90;;;;;;6190809;23;19936;-81
2021/12/16 21:30:48;;;;;;;16.95;7.82;;;8.40;99.90;;;;;;6191661;23;20023;-81
2021/12/16 21:33:21;;;;;;;15.60;7.30;;;8.40;99.90;;;;;;6190634;23;20021;-84
2021/12/16 21:35:57;;;;;;;17.58;8.35;;;8.40;99.90;;;;;;6091530;23;20015;-82
2021/12/16 21:38:22;;;;;;;14.90;7.68;;;8.40;99.90;;;;;;6190740;23;20030;-79
2021/12/16 21:40:48;;;;;;;;;;;8.40;99.90;;;;;;6192707;23;20022;-81
2021/12/16 21:43:14;;;;;;;14.63;8.63;;;8.40;99.90;;;;;;6192966;23;19991;-85
2021/12/16 21:45:40;;;;;;;17.38;8.63;;;8.40;99.90;;;;;;6188736;23;20473;-93
2021/12/16 21:48:08;;;;;;;21.65;10.32;;;8.40;99.90;;;;;;6194957;23;20026;-83
2021/12/16 21:50:40;;;;;;;18.20;9.55;;;8.40;99.90;;;;;;6194717;23;20049;-81
2021/12/16 21:53:06;;;;;;;20.52;9.82;;;8.40;99.90;;;;;;6194899;23;20130;-87
2021/12/16 21:55:36;;;;;;;;;;;8.40;99.90;;;;;;6194691;23;20045;-82
2021/12/16 21:58:09;;;;;;;19.83;8.85;;;8.40;99.90;;;;;;6193720;23;20339;-86
2021/12/16 22:00:40;;;;;;;20.10;8.90;;;8.40;99.90;;;;;;6193365;23;20022;-82
2021/12/16 22:03:08;;;;;;;20.02;9.82;;;8.40;99.90;;;;;;6194589;23;20026;-85
2021/12/16 22:05:34;;;;;;;19.33;9.80;;;8.40;99.90;;;;;;6193650;23;20485;-84
2021/12/16 22:08:00;;;;;;;20.02;9.32;;;8.40;99.90;;;;;;6193482;23;20350;-85
2021/12/16 22:10:26;;;;;;;;;;;8.40;99.90;;;;;;6193653;23;20097;-84
2021/12/16 22:12:52;;;;;;;16.40;8.50;;;8.40;99.90;;;;;;6193048;23;20214;-84
2021/12/16 22:15:27;;;;;;;16.42;8.45;;;8.40;99.90;;;;;;6192158;23;20049;-82
2021/12/16 22:17:54;;;;;;;14.40;8.45;;;8.50;99.90;;;;;;6194618;23;20041;-82
2021/12/16 22:20:24;;;;;;;17.65;8.20;;;8.40;99.90;;;;;;6193349;23;20018;-82
2021/12/16 22:22:51;;;;;;;16.27;8.55;;;8.40;99.90;;;;;;6192828;23;20065;-80
2021/12/16 22:25:17;;;;;;;17.02;8.75;;;8.40;99.90;;;;;;6191737;23;20101;-79
2021/12/16 22:27:43;;;;;;;;;;;8.40;99.90;;;;;;6193179;23;20053;-76
2021/12/16 22:30:11;;;;;;;17.92;9.07;;;8.40;99.90;;;;;;6190986;23;19929;-78
2021/12/16 22:32:37;;;;;;;13.88;7.63;;;8.40;99.90;;;;;;6193376;23;20014;-79
2021/12/16 22:35:12;;;;;;;13.68;7.50;;;8.40;99.90;;;;;;6192259;23;20042;-77
2021/12/16 22:37:38;;;;;;;13.20;6.72;;;8.40;99.90;;;;;;6092572;23;20015;-86
2021/12/16 22:40:10;;;;;;;;;;;8.40;99.90;;;;;;6193597;23;20041;-84